sensor_id;sensor_type;location;lat;lon;timestamp;temperature;humidity
17807;DHT22;9027;48.938;9.182;2022-10-16T00:01:28;16.70;99.90
17807;DHT22;9027;48.938;9.182;2022-10-16T00:03:00;16.70;99.90
17807;DHT22;9027;48.938;9.182;2022-10-16T00:04:31;16.70;99.90
17807;DHT22;9027;48.938;9.182;2022-10-16T00:06:03;16.70;99.90
17807;DHT22;9027;48.938;9.182;2022-10-16T00:07:35;16.80;99.90
17807;DHT22;9027;48.938;9.182;2022-10-16T00:09:08;16.80;99.90
17807;DHT22;9027;48.938;9.182;2022-10-16T00:10:40;16.70;99.90
17807;DHT22;9027;48.938;9.182;2022-10-16T00:12:12;16.80;99.90
17807;DHT22;9027;48.938;9.182;2022-10-16T00:13:46;16.80;99.90
17807;DHT22;9027;48.938;9.182;2022-10-16T00:15:19;16.80;99.90
17807;DHT22;9027;48.938;9.182;2022-10-16T00:16:50;16.70;99.90
17807;DHT22;9027;48.938;9.182;2022-10-16T00:18:22;16.70;99.90
17807;DHT22;9027;48.938;9.182;2022-10-16T00:19:53;16.70;99.90
17807;DHT22;9027;48.938;9.182;2022-10-16T00:21:27;16.60;99.90
17807;DHT22;9027;48.938;9.182;2022-10-16T00:22:59;16.70;99.90
17807;DHT22;9027;48.938;9.182;2022-10-16T00:24:30;16.70;99.90
17807;DHT22;9027;48.938;9.182;2022-10-16T00:26:04;16.70;99.90
17807;DHT22;9027;48.938;9.182;2022-10-16T00:27:36;16.70;99.90
17807;DHT22;9027;48.938;9.182;2022-10-16T00:29:08;16.80;99.90
17807;DHT22;9027;48.938;9.182;2022-10-16T00:30:42;16.70;99.90
17807;DHT22;9027;48.938;9.182;2022-10-16T00:32:13;16.70;99.90
17807;DHT22;9027;48.938;9.182;2022-10-16T00:33:45;16.60;99.90
17807;DHT22;9027;48.938;9.182;2022-10-16T00:35:16;16.60;99.90
17807;DHT22;9027;48.938;9.182;2022-10-16T00:36:48;16.60;99.90
17807;DHT22;9027;48.938;9.182;2022-10-16T00:38:20;16.60;99.90
17807;DHT22;9027;48.938;9.182;2022-10-16T00:39:51;16.60;99.90
17807;DHT22;9027;48.938;9.182;2022-10-16T00:41:24;16.70;99.90
17807;DHT22;9027;48.938;9.182;2022-10-16T00:42:55;16.70;99.90
17807;DHT22;9027;48.938;9.182;2022-10-16T00:44:48;16.60;99.90
17807;DHT22;9027;48.938;9.182;2022-10-16T00:46:25;16.50;99.90
17807;DHT22;9027;48.938;9.182;2022-10-16T00:47:58;16.50;99.90
17807;DHT22;9027;48.938;9.182;2022-10-16T00:49:29;16.50;99.90
17807;DHT22;9027;48.938;9.182;2022-10-16T00:51:01;16.50;99.90
17807;DHT22;9027;48.938;9.182;2022-10-16T00:52:34;16.50;99.90
17807;DHT22;9027;48.938;9.182;2022-10-16T00:54:12;16.50;99.90
17807;DHT22;9027;48.938;9.182;2022-10-16T00:55:44;16.50;99.90
17807;DHT22;9027;48.938;9.182;2022-10-16T00:57:17;16.50;99.90
17807;DHT22;9027;48.938;9.182;2022-10-16T00:58:49;16.50;99.90
17807;DHT22;9027;48.938;9.182;2022-10-16T01:00:24;16.50;99.90
17807;DHT22;9027;48.938;9.182;2022-10-16T01:01:58;16.50;99.90
17807;DHT22;9027;48.938;9.182;2022-10-16T01:03:32;16.50;99.90
17807;DHT22;9027;48.938;9.182;2022-10-16T01:05:05;16.50;99.90
17807;DHT22;9027;48.938;9.182;2022-10-16T01:06:44;16.60;99.90
17807;DHT22;9027;48.938;9.182;2022-10-16T01:08:23;16.50;99.90
17807;DHT22;9027;48.938;9.182;2022-10-16T01:10:07;16.60;99.90
17807;DHT22;9027;48.938;9.182;2022-10-16T01:11:54;16.60;99.90
17807;DHT22;9027;48.938;9.182;2022-10-16T01:13:35;16.50;99.90
17807;DHT22;9027;48.938;9.182;2022-10-16T01:15:13;16.50;99.90
17807;DHT22;9027;48.938;9.182;2022-10-16T01:16:53;16.50;99.90
17807;DHT22;9027;48.938;9.182;2022-10-16T01:18:32;16.50;99.90
17807;DHT22;9027;48.938;9.182;2022-10-16T01:20:14;16.60;99.90
17807;DHT22;9027;48.938;9.182;2022-10-16T01:21:50;16.60;99.90
17807;DHT22;9027;48.938;9.182;2022-10-16T01:23:36;16.60;99.90
17807;DHT22;9027;48.938;9.182;2022-10-16T01:25:14;16.60;99.90
17807;DHT22;9027;48.938;9.182;2022-10-16T01:27:06;16.60;99.90
17807;DHT22;9027;48.938;9.182;2022-10-16T01:28:42;16.60;99.90
17807;DHT22;9027;48.938;9.182;2022-10-16T01:30:18;16.70;99.90
17807;DHT22;9027;48.938;9.182;2022-10-16T01:31:56;16.70;99.90
17807;DHT22;9027;48.938;9.182;2022-10-16T01:33:30;16.70;99.90
17807;DHT22;9027;48.938;9.182;2022-10-16T01:35:10;16.70;99.90
17807;DHT22;9027;48.938;9.182;2022-10-16T01:36:49;16.70;99.90
17807;DHT22;9027;48.938;9.182;2022-10-16T01:38:26;16.70;99.90
17807;DHT22;9027;48.938;9.182;2022-10-16T01:40:04;16.70;99.90
17807;DHT22;9027;48.938;9.182;2022-10-16T01:41:39;16.70;99.90
17807;DHT22;9027;48.938;9.182;2022-10-16T01:43:16;16.70;99.90
17807;DHT22;9027;48.938;9.182;2022-10-16T01:44:51;16.70;99.90
17807;DHT22;9027;48.938;9.182;2022-10-16T01:46:24;16.80;99.90
17807;DHT22;9027;48.938;9.182;2022-10-16T01:47:58;16.80;99.90
17807;DHT22;9027;48.938;9.182;2022-10-16T01:49:36;16.80;99.90
17807;DHT22;9027;48.938;9.182;2022-10-16T01:51:10;16.70;99.90
17807;DHT22;9027;48.938;9.182;2022-10-16T01:52:46;16.70;99.90
17807;DHT22;9027;48.938;9.182;2022-10-16T01:54:20;16.70;99.90
17807;DHT22;9027;48.938;9.182;2022-10-16T01:55:55;16.70;99.90
17807;DHT22;9027;48.938;9.182;2022-10-16T01:57:28;16.70;99.90
17807;DHT22;9027;48.938;9.182;2022-10-16T01:59:05;16.70;99.90
17807;DHT22;9027;48.938;9.182;2022-10-16T02:00:39;16.70;99.90
17807;DHT22;9027;48.938;9.182;2022-10-16T02:02:13;16.70;99.90
17807;DHT22;9027;48.938;9.182;2022-10-16T02:03:46;16.70;99.90
17807;DHT22;9027;48.938;9.182;2022-10-16T02:05:25;16.60;99.90
17807;DHT22;9027;48.938;9.182;2022-10-16T02:06:58;16.60;99.90
17807;DHT22;9027;48.938;9.182;2022-10-16T02:08:30;16.60;99.90
17807;DHT22;9027;48.938;9.182;2022-10-16T02:10:03;16.60;99.90
17807;DHT22;9027;48.938;9.182;2022-10-16T02:11:34;16.60;99.90
17807;DHT22;9027;48.938;9.182;2022-10-16T02:13:09;16.60;99.90
17807;DHT22;9027;48.938;9.182;2022-10-16T02:14:43;16.60;99.90
17807;DHT22;9027;48.938;9.182;2022-10-16T02:16:14;16.60;99.90
17807;DHT22;9027;48.938;9.182;2022-10-16T02:17:46;16.50;99.90
17807;DHT22;9027;48.938;9.182;2022-10-16T02:19:17;16.50;99.90
17807;DHT22;9027;48.938;9.182;2022-10-16T02:21:00;16.50;99.90
17807;DHT22;9027;48.938;9.182;2022-10-16T02:22:35;16.50;99.90
17807;DHT22;9027;48.938;9.182;2022-10-16T02:24:12;16.50;99.90
17807;DHT22;9027;48.938;9.182;2022-10-16T02:25:48;16.60;99.90
17807;DHT22;9027;48.938;9.182;2022-10-16T02:27:26;16.60;99.90
17807;DHT22;9027;48.938;9.182;2022-10-16T02:29:01;16.60;99.90
17807;DHT22;9027;48.938;9.182;2022-10-16T02:30:39;16.60;99.90
17807;DHT22;9027;48.938;9.182;2022-10-16T02:32:13;16.60;99.90
17807;DHT22;9027;48.938;9.182;2022-10-16T02:33:45;16.70;99.90
17807;DHT22;9027;48.938;9.182;2022-10-16T02:35:19;16.70;99.90
17807;DHT22;9027;48.938;9.182;2022-10-16T02:36:53;16.70;99.90
17807;DHT22;9027;48.938;9.182;2022-10-16T02:38:25;16.70;99.90
17807;DHT22;9027;48.938;9.182;2022-10-16T02:39:58;16.70;99.90
17807;DHT22;9027;48.938;9.182;2022-10-16T02:41:31;16.70;99.90
17807;DHT22;9027;48.938;9.182;2022-10-16T02:43:03;16.70;99.90
17807;DHT22;9027;48.938;9.182;2022-10-16T02:44:35;16.70;99.90
17807;DHT22;9027;48.938;9.182;2022-10-16T02:46:09;16.70;99.90
17807;DHT22;9027;48.938;9.182;2022-10-16T02:47:40;16.70;99.90
17807;DHT22;9027;48.938;9.182;2022-10-16T02:49:12;16.70;99.90
17807;DHT22;9027;48.938;9.182;2022-10-16T02:50:44;16.70;99.90
17807;DHT22;9027;48.938;9.182;2022-10-16T02:52:16;16.70;99.90
17807;DHT22;9027;48.938;9.182;2022-10-16T02:53:48;16.70;99.90
17807;DHT22;9027;48.938;9.182;2022-10-16T02:55:20;16.70;99.90
17807;DHT22;9027;48.938;9.182;2022-10-16T02:56:50;16.60;99.90
17807;DHT22;9027;48.938;9.182;2022-10-16T02:58:22;16.60;99.90
17807;DHT22;9027;48.938;9.182;2022-10-16T02:59:54;16.60;99.90
17807;DHT22;9027;48.938;9.182;2022-10-16T03:01:27;16.60;99.90
17807;DHT22;9027;48.938;9.182;2022-10-16T03:02:59;16.60;99.90
17807;DHT22;9027;48.938;9.182;2022-10-16T03:04:31;16.70;99.90
17807;DHT22;9027;48.938;9.182;2022-10-16T03:06:02;16.70;99.90
17807;DHT22;9027;48.938;9.182;2022-10-16T03:07:34;16.70;99.90
17807;DHT22;9027;48.938;9.182;2022-10-16T03:09:06;16.70;99.90
17807;DHT22;9027;48.938;9.182;2022-10-16T03:10:38;16.70;99.90
17807;DHT22;9027;48.938;9.182;2022-10-16T03:12:10;16.70;99.90
17807;DHT22;9027;48.938;9.182;2022-10-16T03:13:42;16.60;99.90
17807;DHT22;9027;48.938;9.182;2022-10-16T03:15:14;16.60;99.90
17807;DHT22;9027;48.938;9.182;2022-10-16T03:16:47;16.50;99.90
17807;DHT22;9027;48.938;9.182;2022-10-16T03:18:18;16.50;99.90
17807;DHT22;9027;48.938;9.182;2022-10-16T03:19:50;16.60;99.90
17807;DHT22;9027;48.938;9.182;2022-10-16T03:21:22;16.60;99.90
17807;DHT22;9027;48.938;9.182;2022-10-16T03:22:54;16.60;99.90
17807;DHT22;9027;48.938;9.182;2022-10-16T03:24:26;16.50;99.90
17807;DHT22;9027;48.938;9.182;2022-10-16T03:25:57;16.40;99.90
17807;DHT22;9027;48.938;9.182;2022-10-16T03:27:29;16.50;99.90
17807;DHT22;9027;48.938;9.182;2022-10-16T03:29:01;16.50;99.90
17807;DHT22;9027;48.938;9.182;2022-10-16T03:30:33;16.50;99.90
17807;DHT22;9027;48.938;9.182;2022-10-16T03:32:07;16.50;99.90
17807;DHT22;9027;48.938;9.182;2022-10-16T03:33:39;16.50;99.90
17807;DHT22;9027;48.938;9.182;2022-10-16T03:35:09;16.50;99.90
17807;DHT22;9027;48.938;9.182;2022-10-16T03:36:41;16.50;99.90
17807;DHT22;9027;48.938;9.182;2022-10-16T03:38:13;16.60;99.90
17807;DHT22;9027;48.938;9.182;2022-10-16T03:39:44;16.60;99.90
17807;DHT22;9027;48.938;9.182;2022-10-16T03:41:16;16.50;99.90
17807;DHT22;9027;48.938;9.182;2022-10-16T03:42:48;16.50;99.90
17807;DHT22;9027;48.938;9.182;2022-10-16T03:44:20;16.50;99.90
17807;DHT22;9027;48.938;9.182;2022-10-16T03:45:52;16.50;99.90
17807;DHT22;9027;48.938;9.182;2022-10-16T03:47:24;16.50;99.90
17807;DHT22;9027;48.938;9.182;2022-10-16T03:48:56;16.40;99.90
17807;DHT22;9027;48.938;9.182;2022-10-16T03:50:28;16.40;99.90
17807;DHT22;9027;48.938;9.182;2022-10-16T03:51:59;16.50;99.90
17807;DHT22;9027;48.938;9.182;2022-10-16T03:53:31;16.50;99.90
17807;DHT22;9027;48.938;9.182;2022-10-16T03:55:03;16.40;99.90
17807;DHT22;9027;48.938;9.182;2022-10-16T03:56:35;16.40;99.90
17807;DHT22;9027;48.938;9.182;2022-10-16T03:58:06;16.40;99.90
17807;DHT22;9027;48.938;9.182;2022-10-16T03:59:37;16.40;99.90
17807;DHT22;9027;48.938;9.182;2022-10-16T04:01:09;16.40;99.90
17807;DHT22;9027;48.938;9.182;2022-10-16T04:02:43;16.30;99.90
17807;DHT22;9027;48.938;9.182;2022-10-16T04:04:14;16.30;99.90
17807;DHT22;9027;48.938;9.182;2022-10-16T04:05:46;16.30;99.90
17807;DHT22;9027;48.938;9.182;2022-10-16T04:07:18;16.40;99.90
17807;DHT22;9027;48.938;9.182;2022-10-16T04:08:50;16.30;99.90
17807;DHT22;9027;48.938;9.182;2022-10-16T04:10:22;16.40;99.90
17807;DHT22;9027;48.938;9.182;2022-10-16T04:11:54;16.40;99.90
17807;DHT22;9027;48.938;9.182;2022-10-16T04:13:26;16.40;99.90
17807;DHT22;9027;48.938;9.182;2022-10-16T04:14:57;16.40;99.90
17807;DHT22;9027;48.938;9.182;2022-10-16T04:16:28;16.40;99.90
17807;DHT22;9027;48.938;9.182;2022-10-16T04:18:02;16.40;99.90
17807;DHT22;9027;48.938;9.182;2022-10-16T04:19:32;16.40;99.90
17807;DHT22;9027;48.938;9.182;2022-10-16T04:21:05;16.40;99.90
17807;DHT22;9027;48.938;9.182;2022-10-16T04:22:37;16.40;99.90
17807;DHT22;9027;48.938;9.182;2022-10-16T04:24:09;16.40;99.90
17807;DHT22;9027;48.938;9.182;2022-10-16T04:25:42;16.40;99.90
17807;DHT22;9027;48.938;9.182;2022-10-16T04:27:14;16.30;99.90
17807;DHT22;9027;48.938;9.182;2022-10-16T04:28:46;16.40;99.90
17807;DHT22;9027;48.938;9.182;2022-10-16T04:30:18;16.40;99.90
17807;DHT22;9027;48.938;9.182;2022-10-16T04:31:50;16.30;99.90
17807;DHT22;9027;48.938;9.182;2022-10-16T04:33:23;16.30;99.90
17807;DHT22;9027;48.938;9.182;2022-10-16T04:34:55;16.30;99.90
17807;DHT22;9027;48.938;9.182;2022-10-16T04:36:27;16.20;99.90
17807;DHT22;9027;48.938;9.182;2022-10-16T04:37:59;16.10;99.90
17807;DHT22;9027;48.938;9.182;2022-10-16T04:39:31;16.10;99.90
17807;DHT22;9027;48.938;9.182;2022-10-16T04:41:02;16.10;99.90
17807;DHT22;9027;48.938;9.182;2022-10-16T04:42:34;16.10;99.90
17807;DHT22;9027;48.938;9.182;2022-10-16T04:44:06;16.10;99.90
17807;DHT22;9027;48.938;9.182;2022-10-16T04:45:37;16.10;99.90
17807;DHT22;9027;48.938;9.182;2022-10-16T04:47:09;16.10;99.90
17807;DHT22;9027;48.938;9.182;2022-10-16T04:48:43;16.10;99.90
17807;DHT22;9027;48.938;9.182;2022-10-16T04:50:14;16.10;99.90
17807;DHT22;9027;48.938;9.182;2022-10-16T04:52:05;16.10;99.90
17807;DHT22;9027;48.938;9.182;2022-10-16T04:53:39;16.10;99.90
17807;DHT22;9027;48.938;9.182;2022-10-16T04:55:11;16.10;99.90
17807;DHT22;9027;48.938;9.182;2022-10-16T04:56:43;16.10;99.90
17807;DHT22;9027;48.938;9.182;2022-10-16T04:58:18;16.10;99.90
17807;DHT22;9027;48.938;9.182;2022-10-16T04:59:49;16.10;99.90
17807;DHT22;9027;48.938;9.182;2022-10-16T05:01:22;16.10;99.90
17807;DHT22;9027;48.938;9.182;2022-10-16T05:02:54;16.10;99.90
17807;DHT22;9027;48.938;9.182;2022-10-16T05:04:28;16.10;99.90
17807;DHT22;9027;48.938;9.182;2022-10-16T05:06:00;16.00;99.90
17807;DHT22;9027;48.938;9.182;2022-10-16T05:07:32;16.00;99.90
17807;DHT22;9027;48.938;9.182;2022-10-16T05:09:04;16.00;99.90
17807;DHT22;9027;48.938;9.182;2022-10-16T05:10:36;16.10;99.90
17807;DHT22;9027;48.938;9.182;2022-10-16T05:12:08;16.10;99.90
17807;DHT22;9027;48.938;9.182;2022-10-16T05:13:40;16.10;99.90
17807;DHT22;9027;48.938;9.182;2022-10-16T05:15:11;16.10;99.90
17807;DHT22;9027;48.938;9.182;2022-10-16T05:16:43;16.10;99.90
17807;DHT22;9027;48.938;9.182;2022-10-16T05:18:15;16.10;99.90
17807;DHT22;9027;48.938;9.182;2022-10-16T05:19:49;16.10;99.90
17807;DHT22;9027;48.938;9.182;2022-10-16T05:21:21;16.10;99.90
17807;DHT22;9027;48.938;9.182;2022-10-16T05:22:53;16.10;99.90
17807;DHT22;9027;48.938;9.182;2022-10-16T05:24:25;16.10;99.90
17807;DHT22;9027;48.938;9.182;2022-10-16T05:25:58;16.10;99.90
17807;DHT22;9027;48.938;9.182;2022-10-16T05:27:30;16.00;99.90
17807;DHT22;9027;48.938;9.182;2022-10-16T05:29:01;16.00;99.90
17807;DHT22;9027;48.938;9.182;2022-10-16T05:30:33;16.00;99.90
17807;DHT22;9027;48.938;9.182;2022-10-16T05:32:05;16.10;99.90
17807;DHT22;9027;48.938;9.182;2022-10-16T05:33:37;16.00;99.90
17807;DHT22;9027;48.938;9.182;2022-10-16T05:35:09;16.00;99.90
17807;DHT22;9027;48.938;9.182;2022-10-16T05:36:41;16.00;99.90
17807;DHT22;9027;48.938;9.182;2022-10-16T05:38:15;16.00;99.90
17807;DHT22;9027;48.938;9.182;2022-10-16T05:39:48;16.00;99.90
17807;DHT22;9027;48.938;9.182;2022-10-16T05:41:20;16.00;99.90
17807;DHT22;9027;48.938;9.182;2022-10-16T05:42:55;16.00;99.90
17807;DHT22;9027;48.938;9.182;2022-10-16T05:44:27;16.00;99.90
17807;DHT22;9027;48.938;9.182;2022-10-16T05:46:01;16.00;99.90
17807;DHT22;9027;48.938;9.182;2022-10-16T05:47:33;16.00;99.90
17807;DHT22;9027;48.938;9.182;2022-10-16T05:49:05;16.00;99.90
17807;DHT22;9027;48.938;9.182;2022-10-16T05:50:38;16.00;99.90
17807;DHT22;9027;48.938;9.182;2022-10-16T05:52:10;16.00;99.90
17807;DHT22;9027;48.938;9.182;2022-10-16T05:53:42;16.00;99.90
17807;DHT22;9027;48.938;9.182;2022-10-16T05:55:14;16.00;99.90
17807;DHT22;9027;48.938;9.182;2022-10-16T05:56:46;16.00;99.90
17807;DHT22;9027;48.938;9.182;2022-10-16T05:58:18;16.10;99.90
17807;DHT22;9027;48.938;9.182;2022-10-16T05:59:49;16.10;99.90
17807;DHT22;9027;48.938;9.182;2022-10-16T06:01:21;16.00;99.90
17807;DHT22;9027;48.938;9.182;2022-10-16T06:02:54;16.00;99.90
17807;DHT22;9027;48.938;9.182;2022-10-16T06:04:25;16.00;99.90
17807;DHT22;9027;48.938;9.182;2022-10-16T06:05:58;16.00;99.90
17807;DHT22;9027;48.938;9.182;2022-10-16T06:07:34;16.00;99.90
17807;DHT22;9027;48.938;9.182;2022-10-16T06:09:06;16.10;99.90
17807;DHT22;9027;48.938;9.182;2022-10-16T06:10:38;16.00;99.90
17807;DHT22;9027;48.938;9.182;2022-10-16T06:12:10;16.10;99.90
17807;DHT22;9027;48.938;9.182;2022-10-16T06:13:42;16.10;99.90
17807;DHT22;9027;48.938;9.182;2022-10-16T06:15:16;16.10;99.90
17807;DHT22;9027;48.938;9.182;2022-10-16T06:16:48;16.10;99.90
17807;DHT22;9027;48.938;9.182;2022-10-16T06:18:20;16.10;99.90
17807;DHT22;9027;48.938;9.182;2022-10-16T06:19:51;16.10;99.90
17807;DHT22;9027;48.938;9.182;2022-10-16T06:21:25;16.10;99.90
17807;DHT22;9027;48.938;9.182;2022-10-16T06:22:57;16.10;99.90
17807;DHT22;9027;48.938;9.182;2022-10-16T06:24:29;16.10;99.90
17807;DHT22;9027;48.938;9.182;2022-10-16T06:26:05;16.10;99.90
17807;DHT22;9027;48.938;9.182;2022-10-16T06:27:39;16.10;99.90
17807;DHT22;9027;48.938;9.182;2022-10-16T06:29:11;16.10;99.90
17807;DHT22;9027;48.938;9.182;2022-10-16T06:30:43;16.20;99.90
17807;DHT22;9027;48.938;9.182;2022-10-16T06:32:15;16.20;99.90
17807;DHT22;9027;48.938;9.182;2022-10-16T06:33:50;16.20;99.90
17807;DHT22;9027;48.938;9.182;2022-10-16T06:35:23;16.10;99.90
17807;DHT22;9027;48.938;9.182;2022-10-16T06:36:56;16.10;99.90
17807;DHT22;9027;48.938;9.182;2022-10-16T06:38:28;16.10;99.90
17807;DHT22;9027;48.938;9.182;2022-10-16T06:40:00;16.10;99.90
17807;DHT22;9027;48.938;9.182;2022-10-16T06:41:34;16.10;99.90
17807;DHT22;9027;48.938;9.182;2022-10-16T06:43:19;16.10;99.90
17807;DHT22;9027;48.938;9.182;2022-10-16T06:44:51;16.20;99.90
17807;DHT22;9027;48.938;9.182;2022-10-16T06:46:24;16.20;99.90
17807;DHT22;9027;48.938;9.182;2022-10-16T06:47:56;16.20;99.90
17807;DHT22;9027;48.938;9.182;2022-10-16T06:49:28;16.30;99.90
17807;DHT22;9027;48.938;9.182;2022-10-16T06:51:02;16.30;99.90
17807;DHT22;9027;48.938;9.182;2022-10-16T06:52:35;16.40;99.90
17807;DHT22;9027;48.938;9.182;2022-10-16T06:54:07;16.40;99.90
17807;DHT22;9027;48.938;9.182;2022-10-16T06:55:40;16.50;99.90
17807;DHT22;9027;48.938;9.182;2022-10-16T06:57:11;16.40;99.90
17807;DHT22;9027;48.938;9.182;2022-10-16T06:58:43;16.50;99.90
17807;DHT22;9027;48.938;9.182;2022-10-16T07:00:15;16.50;99.90
17807;DHT22;9027;48.938;9.182;2022-10-16T07:01:48;16.50;99.90
17807;DHT22;9027;48.938;9.182;2022-10-16T07:03:20;16.50;99.90
17807;DHT22;9027;48.938;9.182;2022-10-16T07:04:53;16.60;99.90
17807;DHT22;9027;48.938;9.182;2022-10-16T07:06:26;16.60;99.90
17807;DHT22;9027;48.938;9.182;2022-10-16T07:07:59;16.70;99.90
17807;DHT22;9027;48.938;9.182;2022-10-16T07:09:31;16.80;99.90
17807;DHT22;9027;48.938;9.182;2022-10-16T07:11:06;16.80;99.90
17807;DHT22;9027;48.938;9.182;2022-10-16T07:12:42;16.80;99.90
17807;DHT22;9027;48.938;9.182;2022-10-16T07:14:16;16.80;99.90
17807;DHT22;9027;48.938;9.182;2022-10-16T07:15:49;16.80;99.90
17807;DHT22;9027;48.938;9.182;2022-10-16T07:17:19;16.80;99.90
17807;DHT22;9027;48.938;9.182;2022-10-16T07:18:53;16.80;99.90
17807;DHT22;9027;48.938;9.182;2022-10-16T07:20:28;16.80;99.90
17807;DHT22;9027;48.938;9.182;2022-10-16T07:22:03;16.80;99.90
17807;DHT22;9027;48.938;9.182;2022-10-16T07:23:37;16.80;99.90
17807;DHT22;9027;48.938;9.182;2022-10-16T07:25:09;16.80;99.90
17807;DHT22;9027;48.938;9.182;2022-10-16T07:26:42;16.80;99.90
17807;DHT22;9027;48.938;9.182;2022-10-16T07:28:16;16.80;99.90
17807;DHT22;9027;48.938;9.182;2022-10-16T07:29:48;16.80;99.90
17807;DHT22;9027;48.938;9.182;2022-10-16T07:31:20;16.80;99.90
17807;DHT22;9027;48.938;9.182;2022-10-16T07:32:53;16.80;99.90
17807;DHT22;9027;48.938;9.182;2022-10-16T07:34:25;16.80;99.90
17807;DHT22;9027;48.938;9.182;2022-10-16T07:35:57;16.80;99.90
17807;DHT22;9027;48.938;9.182;2022-10-16T07:37:29;16.80;99.90
17807;DHT22;9027;48.938;9.182;2022-10-16T07:39:02;16.70;99.90
17807;DHT22;9027;48.938;9.182;2022-10-16T07:40:34;16.60;99.90
17807;DHT22;9027;48.938;9.182;2022-10-16T07:42:06;16.50;99.90
17807;DHT22;9027;48.938;9.182;2022-10-16T07:43:38;16.50;99.90
17807;DHT22;9027;48.938;9.182;2022-10-16T07:45:10;16.40;99.90
17807;DHT22;9027;48.938;9.182;2022-10-16T07:46:42;16.40;99.90
17807;DHT22;9027;48.938;9.182;2022-10-16T07:48:14;16.40;99.90
17807;DHT22;9027;48.938;9.182;2022-10-16T07:49:46;16.40;99.90
17807;DHT22;9027;48.938;9.182;2022-10-16T07:51:20;16.50;99.90
17807;DHT22;9027;48.938;9.182;2022-10-16T07:52:52;16.60;99.90
17807;DHT22;9027;48.938;9.182;2022-10-16T07:54:26;16.70;99.90
17807;DHT22;9027;48.938;9.182;2022-10-16T07:56:02;16.70;99.90
17807;DHT22;9027;48.938;9.182;2022-10-16T07:57:34;16.60;99.90
17807;DHT22;9027;48.938;9.182;2022-10-16T07:59:06;16.60;99.90
17807;DHT22;9027;48.938;9.182;2022-10-16T08:00:38;16.60;99.90
17807;DHT22;9027;48.938;9.182;2022-10-16T08:02:10;16.70;99.90
17807;DHT22;9027;48.938;9.182;2022-10-16T08:03:42;16.80;99.90
17807;DHT22;9027;48.938;9.182;2022-10-16T08:05:16;16.80;99.90
17807;DHT22;9027;48.938;9.182;2022-10-16T08:06:48;16.90;99.90
17807;DHT22;9027;48.938;9.182;2022-10-16T08:08:20;17.00;99.90
17807;DHT22;9027;48.938;9.182;2022-10-16T08:09:53;17.10;99.90
17807;DHT22;9027;48.938;9.182;2022-10-16T08:11:27;17.20;99.90
17807;DHT22;9027;48.938;9.182;2022-10-16T08:12:59;17.40;99.90
17807;DHT22;9027;48.938;9.182;2022-10-16T08:14:29;17.60;99.90
17807;DHT22;9027;48.938;9.182;2022-10-16T08:16:02;18.00;99.90
17807;DHT22;9027;48.938;9.182;2022-10-16T08:17:38;18.20;99.90
17807;DHT22;9027;48.938;9.182;2022-10-16T08:19:10;18.40;99.90
17807;DHT22;9027;48.938;9.182;2022-10-16T08:20:43;18.80;99.90
17807;DHT22;9027;48.938;9.182;2022-10-16T08:22:15;19.20;99.90
17807;DHT22;9027;48.938;9.182;2022-10-16T08:23:47;19.50;99.90
17807;DHT22;9027;48.938;9.182;2022-10-16T08:25:21;19.90;99.90
17807;DHT22;9027;48.938;9.182;2022-10-16T08:26:53;20.20;99.90
17807;DHT22;9027;48.938;9.182;2022-10-16T08:28:26;20.40;99.90
17807;DHT22;9027;48.938;9.182;2022-10-16T08:29:58;20.50;99.90
17807;DHT22;9027;48.938;9.182;2022-10-16T08:31:30;20.80;99.90
17807;DHT22;9027;48.938;9.182;2022-10-16T08:33:02;21.00;99.90
17807;DHT22;9027;48.938;9.182;2022-10-16T08:34:34;21.00;99.90
17807;DHT22;9027;48.938;9.182;2022-10-16T08:36:06;21.20;99.90
17807;DHT22;9027;48.938;9.182;2022-10-16T08:37:39;21.20;99.90
17807;DHT22;9027;48.938;9.182;2022-10-16T08:39:11;21.00;99.90
17807;DHT22;9027;48.938;9.182;2022-10-16T08:40:44;21.00;99.90
17807;DHT22;9027;48.938;9.182;2022-10-16T08:42:30;21.00;99.90
17807;DHT22;9027;48.938;9.182;2022-10-16T08:44:28;20.80;99.90
17807;DHT22;9027;48.938;9.182;2022-10-16T08:46:21;20.80;99.90
17807;DHT22;9027;48.938;9.182;2022-10-16T08:48:06;20.80;99.90
17807;DHT22;9027;48.938;9.182;2022-10-16T08:49:43;20.70;99.90
17807;DHT22;9027;48.938;9.182;2022-10-16T08:51:22;20.50;99.90
17807;DHT22;9027;48.938;9.182;2022-10-16T08:52:55;20.50;99.90
17807;DHT22;9027;48.938;9.182;2022-10-16T08:54:29;20.30;99.90
17807;DHT22;9027;48.938;9.182;2022-10-16T08:56:07;20.20;99.90
17807;DHT22;9027;48.938;9.182;2022-10-16T08:57:39;20.20;99.90
17807;DHT22;9027;48.938;9.182;2022-10-16T08:59:11;20.10;99.90
17807;DHT22;9027;48.938;9.182;2022-10-16T09:00:48;20.10;99.90
17807;DHT22;9027;48.938;9.182;2022-10-16T09:02:26;19.70;99.90
17807;DHT22;9027;48.938;9.182;2022-10-16T09:04:34;19.50;99.90
17807;DHT22;9027;48.938;9.182;2022-10-16T09:06:29;19.40;99.90
17807;DHT22;9027;48.938;9.182;2022-10-16T09:08:11;19.40;99.90
17807;DHT22;9027;48.938;9.182;2022-10-16T09:09:55;19.50;99.90
17807;DHT22;9027;48.938;9.182;2022-10-16T09:11:40;19.60;99.90
17807;DHT22;9027;48.938;9.182;2022-10-16T09:13:20;19.70;99.90
17807;DHT22;9027;48.938;9.182;2022-10-16T09:15:01;19.70;99.90
17807;DHT22;9027;48.938;9.182;2022-10-16T09:16:38;19.70;99.90
17807;DHT22;9027;48.938;9.182;2022-10-16T09:18:16;19.70;99.90
17807;DHT22;9027;48.938;9.182;2022-10-16T09:19:53;19.60;99.90
17807;DHT22;9027;48.938;9.182;2022-10-16T09:21:30;19.60;99.90
17807;DHT22;9027;48.938;9.182;2022-10-16T09:23:13;19.70;99.90
17807;DHT22;9027;48.938;9.182;2022-10-16T09:24:46;19.80;99.90
17807;DHT22;9027;48.938;9.182;2022-10-16T09:26:18;20.00;99.90
17807;DHT22;9027;48.938;9.182;2022-10-16T09:27:54;20.40;99.90
17807;DHT22;9027;48.938;9.182;2022-10-16T09:29:25;20.80;99.90
17807;DHT22;9027;48.938;9.182;2022-10-16T09:30:57;21.30;99.90
17807;DHT22;9027;48.938;9.182;2022-10-16T09:32:31;21.70;99.90
17807;DHT22;9027;48.938;9.182;2022-10-16T09:34:10;22.20;99.90
17807;DHT22;9027;48.938;9.182;2022-10-16T09:35:50;22.50;99.90
17807;DHT22;9027;48.938;9.182;2022-10-16T09:37:24;22.50;99.90
17807;DHT22;9027;48.938;9.182;2022-10-16T09:39:07;22.50;99.90
17807;DHT22;9027;48.938;9.182;2022-10-16T09:40:42;22.60;99.90
17807;DHT22;9027;48.938;9.182;2022-10-16T09:42:16;22.50;99.90
17807;DHT22;9027;48.938;9.182;2022-10-16T09:43:53;22.70;99.90
17807;DHT22;9027;48.938;9.182;2022-10-16T09:45:26;22.70;99.90
17807;DHT22;9027;48.938;9.182;2022-10-16T09:47:04;22.90;99.90
17807;DHT22;9027;48.938;9.182;2022-10-16T09:48:37;22.70;99.90
17807;DHT22;9027;48.938;9.182;2022-10-16T09:50:22;22.40;99.90
17807;DHT22;9027;48.938;9.182;2022-10-16T09:52:03;22.40;99.90
17807;DHT22;9027;48.938;9.182;2022-10-16T09:53:41;22.70;99.90
17807;DHT22;9027;48.938;9.182;2022-10-16T09:55:17;23.00;99.90
17807;DHT22;9027;48.938;9.182;2022-10-16T09:56:49;23.30;99.90
17807;DHT22;9027;48.938;9.182;2022-10-16T09:58:24;23.40;99.90
17807;DHT22;9027;48.938;9.182;2022-10-16T10:00:08;23.90;99.90
17807;DHT22;9027;48.938;9.182;2022-10-16T10:01:46;24.00;99.90
17807;DHT22;9027;48.938;9.182;2022-10-16T10:03:34;24.30;99.90